createdAt,value
2019-03-19T14:39:04.897Z,28.55
2019-03-19T14:40:04.542Z,28.55
2019-03-19T14:41:04.531Z,28.55
2019-03-19T14:42:04.558Z,29.05
2019-03-19T14:43:04.526Z,28.37
2019-03-19T14:44:04.539Z,28.47
2019-03-19T14:45:04.502Z,28.45
2019-03-19T14:46:04.501Z,27.66
2019-03-19T15:25:56.215Z,29.06
2019-03-19T15:26:56.113Z,27.44
2019-03-19T15:27:56.167Z,29.68
2019-03-19T15:28:56.122Z,27.48
2019-03-19T15:29:56.075Z,27.70
2019-03-19T15:30:56.090Z,27.70
2019-03-19T15:31:56.054Z,28.12
2019-03-19T15:32:56.146Z,28.86
2019-03-19T15:33:56.098Z,29.79
2019-03-19T15:34:56.033Z,29.60
2019-03-19T15:35:56.018Z,31.24
2019-03-19T15:36:55.996Z,31.66
2019-03-19T15:37:56.272Z,31.67
2019-03-19T15:38:55.985Z,31.18
2019-03-19T15:39:55.981Z,32.60
2019-03-19T15:40:55.978Z,32.92
2019-03-19T15:41:55.956Z,32.92
2019-03-19T15:42:55.971Z,33.02
2019-03-19T15:43:55.930Z,33.02
2019-03-19T15:44:56.034Z,33.02
2019-03-19T15:45:55.955Z,32.51
2019-03-19T15:46:55.900Z,32.71
2019-03-19T15:47:55.935Z,33.23
2019-03-19T15:48:55.923Z,32.92
2019-03-19T15:49:55.888Z,33.02
2019-03-19T15:50:55.857Z,32.21
2019-03-19T15:51:55.850Z,32.62
2019-03-19T15:52:55.845Z,32.82
2019-03-19T15:53:55.879Z,33.02
2019-03-19T15:54:55.824Z,31.60
2019-03-19T15:55:55.835Z,31.50
2019-03-19T15:56:55.894Z,31.40
2019-03-19T15:57:56.520Z,31.48
2019-03-19T15:58:55.850Z,32.62
2019-03-19T15:59:55.762Z,32.10
2019-03-19T16:00:55.752Z,33.31
2019-03-19T16:01:55.773Z,33.11
2019-03-19T16:02:55.729Z,32.80
2019-03-19T16:03:55.862Z,32.29
2019-03-19T16:04:55.723Z,31.99
2019-03-19T16:05:55.701Z,32.51
2019-03-19T16:06:55.692Z,32.92
2019-03-19T16:07:55.679Z,32.73
2019-03-19T16:08:55.695Z,32.32
2019-03-19T16:09:55.658Z,32.73
2019-03-19T16:10:55.679Z,32.23
2019-03-19T16:11:55.663Z,33.04
2019-03-19T16:12:55.706Z,33.04
2019-03-19T16:13:56.173Z,32.82
2019-03-19T16:14:55.609Z,32.21
2019-03-19T16:15:55.602Z,32.23
2019-03-19T16:16:55.626Z,32.12
2019-03-19T16:17:55.575Z,32.34
2019-03-19T16:18:55.565Z,33.36
2019-03-19T16:19:55.579Z,33.05
2019-03-19T16:20:55.553Z,33.07
2019-03-19T16:21:55.566Z,34.39
2019-03-19T16:22:55.520Z,33.88
2019-03-19T16:23:55.520Z,34.39
2019-03-19T16:24:55.510Z,34.19
2019-03-19T16:25:55.490Z,33.97
2019-03-19T16:26:56.508Z,33.68
2019-03-19T16:27:55.511Z,34.09
2019-03-19T16:28:55.553Z,33.98
2019-03-19T16:29:55.454Z,33.68
2019-03-19T16:30:55.445Z,34.49
2019-03-19T16:31:55.501Z,33.88
2019-03-19T16:32:55.431Z,35.21
2019-03-19T16:33:55.404Z,34.19
2019-03-19T16:34:55.442Z,33.48
2019-03-19T16:35:55.418Z,35.21
2019-03-19T16:36:55.413Z,35.42
2019-03-19T16:37:55.408Z,35.32
2019-03-19T16:38:55.351Z,35.53
2019-03-19T16:39:55.345Z,35.44
2019-03-19T16:40:55.372Z,35.14
2019-03-19T16:41:55.343Z,35.14
2019-03-19T16:42:55.322Z,35.85
2019-03-19T16:43:55.316Z,35.46
2019-03-19T16:44:55.303Z,36.60
2019-03-19T16:45:55.319Z,36.40
2019-03-19T16:46:55.287Z,37.72
2019-03-19T16:47:55.282Z,36.70
2019-03-19T16:48:55.251Z,36.80
2019-03-19T16:49:55.268Z,36.80
2019-03-19T16:50:56.337Z,37.41
2019-03-19T16:51:55.239Z,37.41
2019-03-19T16:52:55.233Z,37.51
2019-03-19T16:53:55.195Z,37.84
2019-03-19T16:54:55.178Z,38.23
2019-03-19T16:55:55.189Z,37.74
2019-03-19T16:56:55.179Z,37.21
2019-03-19T16:57:55.185Z,37.21
2019-03-19T16:58:55.165Z,37.41
2019-03-19T16:59:55.141Z,37.12
2019-03-19T17:00:55.150Z,37.53
2019-03-19T17:02:01.831Z,37.84
2019-03-19T17:02:56.101Z,37.02
2019-03-19T17:03:55.114Z,37.53
2019-03-19T17:04:55.071Z,37.85
2019-03-19T17:05:55.090Z,38.24
2019-03-19T17:06:55.064Z,38.26
2019-03-19T17:07:55.080Z,38.26
2019-03-19T17:08:55.030Z,37.85
2019-03-19T17:09:55.102Z,38.78
2019-03-19T17:10:55.696Z,38.67
2019-03-19T17:11:55.018Z,38.37
2019-03-19T17:12:55.056Z,38.16
2019-03-19T17:13:54.990Z,39.59
2019-03-19T17:14:55.002Z,39.59
2019-03-19T17:15:54.968Z,39.39
2019-03-19T17:16:55.005Z,39.18
2019-03-19T17:17:54.971Z,39.08
2019-03-19T17:18:54.945Z,39.39
2019-03-19T17:19:54.911Z,39.59
2019-03-19T17:20:54.904Z,38.78
2019-03-19T17:21:54.900Z,39.61
2019-03-19T17:22:55.225Z,39.92
2019-03-19T17:23:54.936Z,39.81
2019-03-19T17:24:54.869Z,39.61
2019-03-19T17:25:54.879Z,40.53
2019-03-19T17:26:54.850Z,40.01
2019-03-19T17:27:54.830Z,39.53
2019-03-19T17:28:54.842Z,39.83
2019-03-19T17:29:54.811Z,39.53
2019-03-19T17:30:54.848Z,39.73
2019-03-19T17:31:54.865Z,40.03
2019-03-19T17:32:54.770Z,40.14
2019-03-19T17:33:54.791Z,40.03
2019-03-19T17:34:54.766Z,40.34
2019-03-19T17:35:54.742Z,40.65
2019-03-19T17:36:54.789Z,40.34
2019-03-19T17:37:54.783Z,40.36
2019-03-19T17:38:54.708Z,40.87
2019-03-19T17:39:54.702Z,40.77
2019-03-19T17:40:54.699Z,40.97
2019-03-19T17:41:54.719Z,41.18
2019-03-19T17:42:54.690Z,41.18
2019-03-19T17:43:54.660Z,41.59
2019-03-19T17:44:54.668Z,41.59
2019-03-19T17:45:54.741Z,41.59
2019-03-19T17:46:54.737Z,41.69
2019-03-19T17:47:54.621Z,42.41
2019-03-19T17:48:54.606Z,42.61
2019-03-19T17:49:54.591Z,42.73
2019-03-19T17:50:54.634Z,42.91
2019-03-19T17:51:54.667Z,42.00
2019-03-19T17:52:54.657Z,42.20
2019-03-19T17:53:54.555Z,42.32
2019-03-19T17:54:54.545Z,42.10
2019-03-19T17:55:54.563Z,42.32
2019-03-19T17:56:54.528Z,41.79
2019-03-19T17:57:54.525Z,42.02
2019-03-19T17:58:54.508Z,42.20
2019-03-19T17:59:55.226Z,42.22
2019-03-19T18:00:54.504Z,42.30
2019-03-19T18:01:54.464Z,42.22
2019-03-19T18:02:54.466Z,42.12
2019-03-19T18:03:54.476Z,42.22
2019-03-19T18:04:54.514Z,42.43
2019-03-19T18:05:54.485Z,42.43
2019-03-19T18:06:54.499Z,42.83
2019-03-19T18:07:54.445Z,43.04
2019-03-19T18:08:54.446Z,43.14
2019-03-19T18:09:54.401Z,42.73
2019-03-19T18:10:54.422Z,42.83
2019-03-19T18:11:54.367Z,42.94
2019-03-19T18:12:54.356Z,43.57
2019-03-19T18:13:54.341Z,42.96
2019-03-19T18:14:54.325Z,43.37
2019-03-19T18:15:54.351Z,42.96
2019-03-19T18:16:54.302Z,42.44
2019-03-19T18:17:54.303Z,43.57
2019-03-19T18:18:54.335Z,43.57
2019-03-19T18:19:54.271Z,44.08
2019-03-19T18:20:54.305Z,43.98
2019-03-19T18:21:54.263Z,44.79
2019-03-19T18:22:54.238Z,44.59
2019-03-19T18:23:54.269Z,43.88
2019-03-19T18:24:54.221Z,43.47
2019-03-19T18:25:54.213Z,42.85
2019-03-19T18:26:54.221Z,43.77
2019-03-19T18:27:54.193Z,44.59
2019-03-19T18:28:54.211Z,44.79
2019-03-19T18:29:55.567Z,44.29
2019-03-19T18:30:54.176Z,43.98
2019-03-19T18:31:54.143Z,43.67
2019-03-19T18:32:54.158Z,44.08
2019-03-19T18:33:54.136Z,44.90
2019-03-19T18:34:54.118Z,44.70
2019-03-19T18:35:56.270Z,44.71
2019-03-19T18:36:54.100Z,44.71
2019-03-19T18:37:54.121Z,46.33
2019-03-19T18:38:54.079Z,46.03
2019-03-19T18:39:54.065Z,46.04
2019-03-19T18:40:54.057Z,46.04
2019-03-19T18:41:54.037Z,45.84
2019-03-19T18:42:54.054Z,46.04
2019-03-19T18:43:54.043Z,45.74
2019-03-19T18:44:54.025Z,45.84
2019-03-19T18:45:54.007Z,47.17
2019-03-19T18:46:54.003Z,47.27
2019-03-19T18:47:54.024Z,47.50
2019-03-19T18:48:53.966Z,45.64
2019-03-19T18:49:53.955Z,44.53
2019-03-19T18:50:53.955Z,46.07
2019-03-19T18:51:53.935Z,47.19
2019-03-19T18:52:53.953Z,47.19
2019-03-19T18:53:53.936Z,47.19
2019-03-19T18:54:53.924Z,47.50
2019-03-19T18:55:53.894Z,46.37
2019-03-19T18:56:53.890Z,47.09
2019-03-19T18:57:53.908Z,47.19
2019-03-19T18:58:53.856Z,47.30
2019-03-19T18:59:53.852Z,46.58
2019-03-19T19:00:53.879Z,46.50
2019-03-19T19:01:53.839Z,46.81
2019-03-19T19:02:53.836Z,47.11
2019-03-19T19:03:53.817Z,47.83
2019-03-19T19:04:53.818Z,47.52
2019-03-19T19:05:53.817Z,47.31
2019-03-19T19:06:53.806Z,47.01
2019-03-19T19:07:53.838Z,47.22
2019-03-19T19:08:53.804Z,46.81
2019-03-19T19:09:53.754Z,46.21
2019-03-19T19:10:53.755Z,46.52
2019-03-19T19:11:53.750Z,46.83
2019-03-19T19:12:53.720Z,46.01
2019-03-19T19:13:53.773Z,46.83
2019-03-19T19:14:53.730Z,47.88
2019-03-19T19:15:53.688Z,47.26
2019-03-19T19:16:53.690Z,48.10
2019-03-19T19:17:53.695Z,48.41
2019-03-19T19:18:53.682Z,47.79
2019-03-19T19:19:53.658Z,48.33
2019-03-19T19:20:53.661Z,48.64
2019-03-19T19:21:53.649Z,48.33
2019-03-19T19:22:53.618Z,48.54
2019-03-19T19:23:53.617Z,48.43
2019-03-19T19:24:53.583Z,48.84
2019-03-19T19:25:53.680Z,48.22
2019-03-19T19:26:53.564Z,48.74
2019-03-19T19:27:53.782Z,49.05
2019-03-19T19:28:53.572Z,49.17
2019-03-19T19:29:53.544Z,49.56
2019-03-19T19:30:53.520Z,48.86
2019-03-19T19:31:53.540Z,49.66
2019-03-19T19:33:01.463Z,49.15
2019-03-19T19:33:54.547Z,49.17
2019-03-19T19:34:53.515Z,49.77
2019-03-19T19:35:53.489Z,48.86
2019-03-19T19:36:53.470Z,50.10
2019-03-19T19:37:53.474Z,49.38
2019-03-19T19:38:53.500Z,49.27
2019-03-19T19:39:53.435Z,49.99
2019-03-19T19:40:53.487Z,49.69
2019-03-19T19:41:53.421Z,50.12
2019-03-19T19:42:53.431Z,50.40
2019-03-19T19:43:53.418Z,50.74
2019-03-19T19:44:53.813Z,51.15
2019-03-19T19:45:53.360Z,51.15
2019-03-19T19:46:53.348Z,51.25
2019-03-19T19:47:53.495Z,51.25
2019-03-19T19:48:53.750Z,51.76
2019-03-19T19:49:53.310Z,51.89
2019-03-19T19:50:53.338Z,52.09
2019-03-19T19:51:53.288Z,52.89
2019-03-19T19:52:53.333Z,52.51
2019-03-19T19:53:53.272Z,52.51
2019-03-19T19:54:53.311Z,52.30
2019-03-19T19:55:53.254Z,52.61
2019-03-19T19:56:53.241Z,53.23
2019-03-19T19:57:53.249Z,53.12
2019-03-19T19:58:53.237Z,53.23
2019-03-19T19:59:53.252Z,53.77
2019-03-19T20:00:53.209Z,53.43
2019-03-19T20:01:53.210Z,53.12
2019-03-19T20:02:54.731Z,53.53
2019-03-19T20:03:53.179Z,53.02
2019-03-19T20:05:02.486Z,53.94
2019-03-19T20:05:54.174Z,53.35
2019-03-19T20:06:53.136Z,53.25
2019-03-19T20:07:53.160Z,53.77
2019-03-19T20:08:53.140Z,53.45
2019-03-19T20:09:53.115Z,53.45
2019-03-19T20:10:53.093Z,53.35
2019-03-19T20:11:53.113Z,53.45
2019-03-19T20:12:53.123Z,53.35
2019-03-19T20:13:53.064Z,53.97
2019-03-19T20:14:53.051Z,53.87
2019-03-19T20:15:53.035Z,54.79
2019-03-19T20:16:53.042Z,54.82
2019-03-19T20:17:53.067Z,54.10
2019-03-19T20:18:53.001Z,54.72
2019-03-19T20:19:52.993Z,55.43
2019-03-19T20:20:52.974Z,55.74
2019-03-19T20:21:53.011Z,55.95
2019-03-19T20:22:52.963Z,56.08
2019-03-19T20:23:52.957Z,55.95
2019-03-19T20:24:52.940Z,55.46
2019-03-19T20:25:52.955Z,56.80
2019-03-19T20:26:52.984Z,56.38
2019-03-19T20:27:52.953Z,55.77
2019-03-19T20:28:52.909Z,56.80
2019-03-19T20:29:52.884Z,57.01
2019-03-19T20:30:52.868Z,56.59
2019-03-19T20:31:52.912Z,56.49
2019-03-19T20:32:52.887Z,57.31
2019-03-19T20:33:52.850Z,57.24
2019-03-19T20:34:52.837Z,57.24
2019-03-19T20:35:52.819Z,56.82
2019-03-19T20:36:52.802Z,58.03
2019-03-19T20:37:52.821Z,57.65
2019-03-19T20:38:52.789Z,57.14
2019-03-19T20:39:52.766Z,56.82
2019-03-19T20:40:52.761Z,57.34
2019-03-19T20:41:52.752Z,57.86
2019-03-19T20:42:52.776Z,57.54
2019-03-19T20:43:52.741Z,57.86
2019-03-19T20:44:52.748Z,58.29
2019-03-19T20:45:52.715Z,58.60
2019-03-19T20:46:52.734Z,57.78
2019-03-19T20:47:52.690Z,57.14
2019-03-19T20:48:52.710Z,57.44
2019-03-19T20:49:52.703Z,56.62
2019-03-19T20:50:52.662Z,56.85
2019-03-19T20:51:52.672Z,57.24
2019-03-19T20:52:52.667Z,57.06
2019-03-19T20:53:52.654Z,57.78
2019-03-19T20:54:52.616Z,57.14
2019-03-19T20:55:52.656Z,57.26
2019-03-19T20:56:52.641Z,56.85
2019-03-19T20:57:52.579Z,57.16
2019-03-19T20:58:52.594Z,57.26
2019-03-19T20:59:52.590Z,57.06
